Yusyun — JD3373 — position and weather

sailwx.info

Track history (hours):
 
Tides and Currents Weather Stations Pressure Air Temp Water Temp Dewpoint Dewpoint Depression Visibility Wind Speed Wind Dir Waves Ship Positions

Yusyun

Last reported at 2017-Oct-07 09:44 UTC. Time now 2017-Oct-19 05:29 UTC.
Position N 34°36' E 134°55'.
Warning: this ship's position is 11 days out of date.

Length 61 m; draft 3.7 m.

Type: Cargo ship. MMSI: 431003628.

Date/timePositionNaut miles runAvg speedWind from/ knotsBaromVisibWave heightAir tempDewpointWater temp
2017-Oct-07 09:44N 34°36' E 134°55'311.2
2017-Oct-07 09:28N 34°38' E 134°58'5 9.6
2017-Oct-07 08:57N 34°37' E 135°04'510.9
2017-Oct-07 08:30N 34°37' E 135°10'510.2
2017-Oct-07 08:00N 34°38' E 135°16'4 8.4
2017-Oct-07 07:30N 34°42' E 135°18'0 0.1
2017-Oct-07 07:00N 34°42' E 135°18'0 0.3
2017-Oct-07 06:30N 34°42' E 135°18'0 0.0
2017-Oct-07 06:00N 34°42' E 135°18'0 0.0
2017-Oct-07 05:30N 34°42' E 135°18'0 0.0
2017-Oct-07 05:00N 34°42' E 135°18'0 0.0
2017-Oct-07 04:30N 34°42' E 135°18'0 0.0
2017-Oct-07 04:00N 34°42' E 135°18'0 0.0
2017-Oct-07 03:30N 34°42' E 135°18'0 0.0
2017-Oct-07 03:00N 34°42' E 135°18'0 0.0
2017-Oct-07 02:30N 34°42' E 135°18'0 0.0
2017-Oct-07 02:00N 34°42' E 135°18'0 0.0
2017-Oct-07 01:30N 34°42' E 135°18'0 0.0
2017-Oct-07 01:00N 34°42' E 135°18'0 0.0
2017-Oct-07 00:30N 34°42' E 135°18'0 0.0
2017-Oct-07 00:00N 34°42' E 135°18'0 0.0
2017-Oct-06 23:30N 34°42' E 135°18'0 0.0
2017-Oct-06 23:00N 34°42' E 135°18'0 0.6
2017-Oct-06 22:30N 34°42' E 135°17'1 1.2
2017-Oct-06 22:00N 34°42' E 135°18'0 0.0
2017-Oct-06 21:30N 34°42' E 135°18'0 0.0
2017-Oct-06 20:58N 34°42' E 135°18'0 0.0
2017-Oct-06 20:30N 34°42' E 135°18'0 0.0
2017-Oct-06 20:00N 34°42' E 135°18'0 0.1
2017-Oct-06 19:30N 34°42' E 135°18'0 0.1
2017-Oct-06 19:00N 34°42' E 135°18'0 0.1
2017-Oct-06 18:30N 34°42' E 135°18'0 0.1
2017-Oct-06 18:00N 34°42' E 135°18'0 0.1
2017-Oct-06 17:30N 34°42' E 135°18'0 0.1
2017-Oct-06 17:00N 34°42' E 135°18'0 0.0
2017-Oct-06 16:30N 34°42' E 135°18'0 0.0
2017-Oct-06 16:00N 34°42' E 135°18'0 0.0
2017-Oct-06 15:29N 34°42' E 135°18'0 0.0
2017-Oct-06 15:00N 34°42' E 135°18'0 0.0
2017-Oct-06 14:30N 34°42' E 135°18'0 0.0
2017-Oct-06 14:00N 34°42' E 135°18'0 0.0
2017-Oct-06 13:30N 34°42' E 135°18'0 0.0
2017-Oct-06 13:00N 34°42' E 135°18'0 0.0
2017-Oct-06 12:30N 34°42' E 135°18'0 0.0
2017-Oct-06 12:00N 34°42' E 135°18'0 0.0
2017-Oct-06 11:30N 34°42' E 135°18'0 0.0
2017-Oct-06 11:00N 34°42' E 135°18'0 0.0
2017-Oct-06 10:30N 34°42' E 135°18'0 0.0
2017-Oct-06 10:00N 34°42' E 135°18'0 0.1
2017-Oct-06 09:31N 34°42' E 135°18'4 8.4
2017-Oct-06 09:00N 34°38' E 135°16'5 9.8
2017-Oct-06 08:30N 34°36' E 135°10'5 9.5
2017-Oct-06 08:00N 34°35' E 135°05'  
Track history (hours):
 
Tides and Currents Weather Stations Pressure Air Temp Water Temp Dewpoint Dewpoint Depression Visibility Wind Speed Wind Dir Waves Ship Positions

Yusyun

Last reported at 2017-Oct-07 09:44 UTC. Time now 2017-Oct-19 05:29 UTC.
Position N 34°36' E 134°55'.
Warning: this ship's position is 11 days out of date.

Length 61 m; draft 3.7 m.

Type: Cargo ship. MMSI: 431003628.

Date/timePositionNaut miles runAvg speedWind from/ knotsBaromVisibWave heightAir tempDewpointWater temp
2017-Oct-07 09:44N 34°36' E 134°55'311.2
2017-Oct-07 09:28N 34°38' E 134°58'5 9.6
2017-Oct-07 08:57N 34°37' E 135°04'510.9
2017-Oct-07 08:30N 34°37' E 135°10'510.2
2017-Oct-07 08:00N 34°38' E 135°16'4 8.4
2017-Oct-07 07:30N 34°42' E 135°18'0 0.1
2017-Oct-07 07:00N 34°42' E 135°18'0 0.3
2017-Oct-07 06:30N 34°42' E 135°18'0 0.0
2017-Oct-07 06:00N 34°42' E 135°18'0 0.0
2017-Oct-07 05:30N 34°42' E 135°18'0 0.0
2017-Oct-07 05:00N 34°42' E 135°18'0 0.0
2017-Oct-07 04:30N 34°42' E 135°18'0 0.0
2017-Oct-07 04:00N 34°42' E 135°18'0 0.0
2017-Oct-07 03:30N 34°42' E 135°18'0 0.0
2017-Oct-07 03:00N 34°42' E 135°18'0 0.0
2017-Oct-07 02:30N 34°42' E 135°18'0 0.0
2017-Oct-07 02:00N 34°42' E 135°18'0 0.0
2017-Oct-07 01:30N 34°42' E 135°18'0 0.0
2017-Oct-07 01:00N 34°42' E 135°18'0 0.0
2017-Oct-07 00:30N 34°42' E 135°18'0 0.0
2017-Oct-07 00:00N 34°42' E 135°18'0 0.0
2017-Oct-06 23:30N 34°42' E 135°18'0 0.0
2017-Oct-06 23:00N 34°42' E 135°18'0 0.6
2017-Oct-06 22:30N 34°42' E 135°17'1 1.2
2017-Oct-06 22:00N 34°42' E 135°18'0 0.0
2017-Oct-06 21:30N 34°42' E 135°18'0 0.0
2017-Oct-06 20:58N 34°42' E 135°18'0 0.0
2017-Oct-06 20:30N 34°42' E 135°18'0 0.0
2017-Oct-06 20:00N 34°42' E 135°18'0 0.1
2017-Oct-06 19:30N 34°42' E 135°18'0 0.1
2017-Oct-06 19:00N 34°42' E 135°18'0 0.1
2017-Oct-06 18:30N 34°42' E 135°18'0 0.1
2017-Oct-06 18:00N 34°42' E 135°18'0 0.1
2017-Oct-06 17:30N 34°42' E 135°18'0 0.1
2017-Oct-06 17:00N 34°42' E 135°18'0 0.0
2017-Oct-06 16:30N 34°42' E 135°18'0 0.0
2017-Oct-06 16:00N 34°42' E 135°18'0 0.0
2017-Oct-06 15:29N 34°42' E 135°18'0 0.0
2017-Oct-06 15:00N 34°42' E 135°18'0 0.0
2017-Oct-06 14:30N 34°42' E 135°18'0 0.0
2017-Oct-06 14:00N 34°42' E 135°18'0 0.0
2017-Oct-06 13:30N 34°42' E 135°18'0 0.0
2017-Oct-06 13:00N 34°42' E 135°18'0 0.0
2017-Oct-06 12:30N 34°42' E 135°18'0 0.0
2017-Oct-06 12:00N 34°42' E 135°18'0 0.0
2017-Oct-06 11:30N 34°42' E 135°18'0 0.0
2017-Oct-06 11:00N 34°42' E 135°18'0 0.0
2017-Oct-06 10:30N 34°42' E 135°18'0 0.0
2017-Oct-06 10:00N 34°42' E 135°18'0 0.1
2017-Oct-06 09:31N 34°42' E 135°18'4 8.4
2017-Oct-06 09:00N 34°38' E 135°16'5 9.8
2017-Oct-06 08:30N 34°36' E 135°10'5 9.5
2017-Oct-06 08:00N 34°35' E 135°05'  

Dump ship's entire track history